Time;durP1;ratioP1;P1;durP2;ratioP2;P2;SDS_P1;SDS_P2;PMS_P1;PMS_P2;Temp;Humidity;BMP_temperature;BMP_pressure;BME280_temperature;BME280_humidity;BME280_pressure;Samples;Min_cycle;Max_cycle;Signal;HPM_P1;HPM_P2
2022/09/18 00:01:44;;;;;;;12.88;1.48;;;;;;;;;;5061530;28;20044;-73
2022/09/18 00:04:12;;;;;;;5.90;1.02;;;;;;;;;;5053530;28;20053;-72
2022/09/18 00:06:40;;;;;;;7.07;1.40;;;;;;;;;;5054465;28;20041;-73
2022/09/18 00:09:07;;;;;;;11.27;1.40;;;;;;;;;;5053999;28;20049;-73
2022/09/18 00:11:35;;;;;;;9.25;1.33;;;;;;;;;;5053217;28;20041;-73
2022/09/18 00:14:02;;;;;;;6.13;1.15;;;;;;;;;;5054011;28;20491;-72
2022/09/18 00:16:28;;;;;;;9.10;1.27;;;;;;;;;;5052872;28;20051;-72
2022/09/18 00:18:54;;;;;;;11.38;1.38;;;;;;;;;;5052635;28;20044;-72
2022/09/18 00:21:23;;;;;;;8.18;0.93;;;;;;;;;;5052865;28;20045;-73
2022/09/18 00:23:49;;;;;;;10.07;1.85;;;;;;;;;;5054063;28;20048;-73
2022/09/18 00:26:17;;;;;;;8.75;2.03;;;;;;;;;;5052998;28;20051;-73
2022/09/18 00:28:43;;;;;;;7.25;1.20;;;;;;;;;;5052298;28;20059;-72
2022/09/18 00:31:13;;;;;;;7.60;1.20;;;;;;;;;;5052685;28;20055;-73
2022/09/18 00:33:39;;;;;;;6.65;1.17;;;;;;;;;;5052608;28;20055;-72
2022/09/18 00:36:06;;;;;;;7.22;1.20;;;;;;;;;;5052934;28;20082;-72
2022/09/18 00:38:33;;;;;;;5.20;0.90;;;;;;;;;;5053924;28;20051;-72
2022/09/18 00:41:00;;;;;;;9.57;1.17;;;;;;;;;;5052376;28;20048;-73
2022/09/18 00:43:27;;;;;;;8.27;1.00;;;;;;;;;;5052209;28;20072;-73
2022/09/18 00:45:58;;;;;;;10.00;1.17;;;;;;;;;;5053906;28;20545;-73
2022/09/18 00:48:28;;;;;;;9.68;1.20;;;;;;;;;;5052488;28;20128;-73
2022/09/18 00:50:54;;;;;;;8.18;1.38;;;;;;;;;;5040204;28;20135;-73
2022/09/18 00:53:21;;;;;;;6.72;1.15;;;;;;;;;;5052167;28;20056;-73
2022/09/18 00:55:47;;;;;;;11.60;1.42;;;;;;;;;;5052462;28;20406;-72
2022/09/18 00:58:13;;;;;;;7.80;1.27;;;;;;;;;;5051859;28;20041;-73
2022/09/18 01:00:39;;;;;;;7.72;1.13;;;;;;;;;;5052483;28;20645;-73
2022/09/18 01:03:05;;;;;;;4.13;0.90;;;;;;;;;;5052345;28;20128;-73
2022/09/18 01:05:54;;;;;;;8.35;0.90;;;;;;;;;;5053110;28;20037;-73
2022/09/18 01:08:34;;;;;;;6.55;1.38;;;;;;;;;;5052326;28;20397;-73
2022/09/18 01:11:07;;;;;;;9.20;1.20;;;;;;;;;;5051510;28;20044;-73
2022/09/18 01:13:33;;;;;;;9.52;1.10;;;;;;;;;;5053542;28;20037;-72
2022/09/18 01:16:08;;;;;;;10.50;1.00;;;;;;;;;;5052677;28;20049;-73
2022/09/18 01:18:37;;;;;;;9.20;1.02;;;;;;;;;;5052128;28;20142;-73
2022/09/18 01:21:14;;;;;;;7.38;1.20;;;;;;;;;;5053235;28;20091;-73
2022/09/18 01:23:43;;;;;;;8.23;1.30;;;;;;;;;;5052161;28;20044;-73
2022/09/18 01:26:18;;;;;;;6.40;0.90;;;;;;;;;;5051883;28;20083;-73
2022/09/18 01:28:50;;;;;;;8.30;1.83;;;;;;;;;;5053035;28;20048;-73
2022/09/18 01:31:24;;;;;;;5.70;1.10;;;;;;;;;;5052007;28;20506;-73
2022/09/18 01:33:54;;;;;;;7.85;1.10;;;;;;;;;;5053143;28;20495;-73
2022/09/18 01:36:23;;;;;;;6.93;1.05;;;;;;;;;;5044962;28;20502;-73
2022/09/18 01:38:55;;;;;;;6.60;1.13;;;;;;;;;;5045401;28;20114;-69
2022/09/18 01:41:25;;;;;;;5.13;0.85;;;;;;;;;;5056250;28;20111;-68
2022/09/18 01:44:00;;;;;;;7.72;1.42;;;;;;;;;;5070202;28;20043;-69
2022/09/18 01:46:26;;;;;;;7.07;1.17;;;;;;;;;;5071774;28;20032;-69
2022/09/18 01:48:57;;;;;;;8.23;0.90;;;;;;;;;;5070555;28;20059;-69
2022/09/18 01:51:29;;;;;;;5.97;1.30;;;;;;;;;;5070894;28;20040;-69
2022/09/18 01:54:00;;;;;;;9.50;0.80;;;;;;;;;;5070857;28;20052;-69
2022/09/18 01:56:30;;;;;;;4.72;0.82;;;;;;;;;;5070448;28;20048;-69
2022/09/18 01:58:58;;;;;;;7.22;1.10;;;;;;;;;;5071378;28;20118;-69
2022/09/18 02:01:28;;;;;;;7.53;0.80;;;;;;;;;;5071293;28;20045;-69
2022/09/18 02:03:56;;;;;;;4.90;0.82;;;;;;;;;;5071708;28;20044;-69
2022/09/18 02:06:33;;;;;;;7.03;0.90;;;;;;;;;;5070459;28;20381;-68
2022/09/18 02:09:00;;;;;;;3.97;0.77;;;;;;;;;;5071754;28;20090;-68
2022/09/18 02:11:27;;;;;;;4.45;0.85;;;;;;;;;;5074217;28;20041;-69
2022/09/18 02:13:53;;;;;;;4.25;1.02;;;;;;;;;;5068325;28;20040;-69
2022/09/18 02:16:22;;;;;;;7.57;1.67;;;;;;;;;;5067978;28;20066;-68
2022/09/18 02:18:50;;;;;;;7.72;0.90;;;;;;;;;;5075316;28;20040;-68
2022/09/18 02:21:18;;;;;;;5.22;0.63;;;;;;;;;;5075235;28;20033;-68
2022/09/18 02:23:44;;;;;;;7.75;0.70;;;;;;;;;;5070892;28;20079;-68
2022/09/18 02:26:11;;;;;;;6.68;1.00;;;;;;;;;;5064917;28;20037;-72
2022/09/18 02:28:38;;;;;;;4.63;0.90;;;;;;;;;;5073492;28;20052;-72
2022/09/18 02:31:04;;;;;;;7.10;0.80;;;;;;;;;;5054934;28;20041;-73
2022/09/18 02:33:32;;;;;;;6.35;0.70;;;;;;;;;;5056299;28;20048;-72
2022/09/18 02:36:10;;;;;;;10.80;1.30;;;;;;;;;;5041005;28;20094;-72
2022/09/18 02:38:45;;;;;;;5.38;0.95;;;;;;;;;;5054890;28;20098;-72
2022/09/18 02:41:16;;;;;;;5.85;1.23;;;;;;;;;;5025244;28;20124;-72
2022/09/18 02:43:49;;;;;;;8.60;0.90;;;;;;;;;;5054864;28;20045;-72
2022/09/18 02:46:23;;;;;;;6.70;1.40;;;;;;;;;;5043889;28;20048;-68
2022/09/18 02:49:12;;;;;;;6.85;1.00;;;;;;;;;;5060008;28;20110;-68
2022/09/18 02:51:44;;;;;;;6.28;1.05;;;;;;;;;;5052028;28;20074;-69
2022/09/18 02:54:12;;;;;;;5.68;0.90;;;;;;;;;;5074611;28;20040;-68
2022/09/18 02:56:44;;;;;;;6.22;0.70;;;;;;;;;;5075251;28;20098;-69
2022/09/18 02:59:23;;;;;;;5.82;1.00;;;;;;;;;;5073436;28;20536;-68
2022/09/18 03:01:50;;;;;;;7.30;0.70;;;;;;;;;;5073109;28;20059;-68
2022/09/18 03:04:20;;;;;;;6.65;1.00;;;;;;;;;;5073248;28;20044;-69
2022/09/18 03:06:46;;;;;;;5.80;0.80;;;;;;;;;;5073901;28;20428;-69
2022/09/18 03:09:14;;;;;;;6.30;0.80;;;;;;;;;;5073485;28;20516;-69
2022/09/18 03:11:40;;;;;;;3.63;0.70;;;;;;;;;;5073081;28;20048;-68
2022/09/18 03:14:07;;;;;;;6.78;0.85;;;;;;;;;;5066159;28;20032;-69
2022/09/18 03:16:33;;;;;;;6.43;1.10;;;;;;;;;;5068684;28;20123;-68
2022/09/18 03:18:59;;;;;;;7.20;0.98;;;;;;;;;;5060809;28;20410;-68
2022/09/18 03:21:26;;;;;;;6.75;1.20;;;;;;;;;;5055724;28;20045;-68
2022/09/18 03:23:52;;;;;;;9.85;0.98;;;;;;;;;;5059172;28;20115;-68
2022/09/18 03:26:18;;;;;;;11.23;1.23;;;;;;;;;;5074546;28;20047;-68
2022/09/18 03:28:44;;;;;;;6.38;1.23;;;;;;;;;;5064606;28;20429;-68
2022/09/18 03:31:11;;;;;;;8.63;1.40;;;;;;;;;;5072481;28;20056;-68
2022/09/18 03:33:37;;;;;;;5.70;0.93;;;;;;;;;;5072675;28;20124;-68
2022/09/18 03:36:04;;;;;;;5.43;0.80;;;;;;;;;;5066840;28;20040;-72
2022/09/18 03:38:31;;;;;;;10.02;0.93;;;;;;;;;;5055074;28;20040;-72
2022/09/18 03:40:57;;;;;;;6.00;0.90;;;;;;;;;;5053455;28;20040;-73
2022/09/18 03:43:23;;;;;;;7.80;1.30;;;;;;;;;;5053743;28;20044;-72
2022/09/18 03:45:49;;;;;;;5.88;0.90;;;;;;;;;;5053606;28;20051;-72
2022/09/18 03:48:15;;;;;;;8.05;1.40;;;;;;;;;;5054829;28;20482;-73
2022/09/18 03:50:41;;;;;;;8.77;1.00;;;;;;;;;;5053922;28;20362;-73
2022/09/18 03:53:07;;;;;;;7.47;0.90;;;;;;;;;;5054766;28;20048;-73
2022/09/18 03:55:35;;;;;;;7.38;1.23;;;;;;;;;;5067604;28;20489;-68
2022/09/18 03:58:01;;;;;;;6.40;1.17;;;;;;;;;;5072497;28;20115;-68
2022/09/18 04:00:27;;;;;;;7.38;1.10;;;;;;;;;;5073220;28;20063;-68
2022/09/18 04:02:53;;;;;;;5.30;0.70;;;;;;;;;;5056623;28;20572;-69
2022/09/18 04:05:19;;;;;;;6.22;0.80;;;;;;;;;;5051662;28;20052;-69
2022/09/18 04:07:45;;;;;;;4.85;1.10;;;;;;;;;;5051966;28;20041;-69
2022/09/18 04:10:12;;;;;;;5.97;0.80;;;;;;;;;;5055953;28;20044;-69
2022/09/18 04:12:38;;;;;;;6.97;0.88;;;;;;;;;;5058324;28;20456;-69
2022/09/18 04:15:04;;;;;;;11.65;1.40;;;;;;;;;;5066287;28;20413;-68
2022/09/18 04:17:30;;;;;;;8.38;0.82;;;;;;;;;;5061379;28;20072;-69
2022/09/18 04:19:56;;;;;;;3.70;0.68;;;;;;;;;;5071841;28;20032;-69
2022/09/18 04:22:22;;;;;;;6.60;0.90;;;;;;;;;;5072801;28;20393;-69
2022/09/18 04:24:52;;;;;;;8.85;1.00;;;;;;;;;;5072043;28;20040;-69
2022/09/18 04:27:18;;;;;;;8.02;1.23;;;;;;;;;;5050262;28;20037;-69
2022/09/18 04:29:44;;;;;;;6.18;0.95;;;;;;;;;;5062574;28;20106;-69
2022/09/18 04:32:10;;;;;;;7.13;1.10;;;;;;;;;;5070393;28;20745;-69
2022/09/18 04:34:39;;;;;;;4.13;0.60;;;;;;;;;;5072882;28;20465;-69
2022/09/18 04:37:05;;;;;;;5.90;1.25;;;;;;;;;;5057783;28;20036;-68
2022/09/18 04:39:32;;;;;;;5.35;0.75;;;;;;;;;;5071234;28;20053;-69
2022/09/18 04:41:58;;;;;;;8.02;0.80;;;;;;;;;;5072741;28;20036;-69
2022/09/18 04:44:24;;;;;;;8.88;0.93;;;;;;;;;;5087871;28;20028;-69
2022/09/18 04:46:50;;;;;;;6.07;0.93;;;;;;;;;;5071890;28;20392;-69
2022/09/18 04:49:17;;;;;;;6.43;0.95;;;;;;;;;;5072351;28;20512;-69
2022/09/18 04:51:43;;;;;;;4.93;0.80;;;;;;;;;;5061886;28;20147;-69
2022/09/18 04:54:10;;;;;;;4.65;0.93;;;;;;;;;;5050468;28;20094;-69
2022/09/18 04:56:36;;;;;;;6.07;1.00;;;;;;;;;;5071700;28;20041;-69
2022/09/18 04:59:02;;;;;;;6.10;1.02;;;;;;;;;;5071648;28;20432;-69
2022/09/18 05:01:28;;;;;;;5.88;1.10;;;;;;;;;;5044174;28;20122;-69
2022/09/18 05:03:54;;;;;;;7.15;0.90;;;;;;;;;;5071163;28;20051;-70
2022/09/18 05:06:21;;;;;;;7.10;0.90;;;;;;;;;;5070968;28;20036;-69
2022/09/18 05:08:47;;;;;;;6.35;0.82;;;;;;;;;;5055061;28;20044;-69
2022/09/18 05:11:13;;;;;;;8.52;1.55;;;;;;;;;;5070815;28;20041;-70
2022/09/18 05:13:39;;;;;;;3.72;0.68;;;;;;;;;;5066623;28;20041;-70
2022/09/18 05:16:06;;;;;;;4.47;0.70;;;;;;;;;;5061602;28;20098;-69
2022/09/18 05:18:32;;;;;;;5.90;0.73;;;;;;;;;;5070907;28;20079;-69
2022/09/18 05:21:02;;;;;;;6.15;0.88;;;;;;;;;;5072292;28;20031;-68
2022/09/18 05:23:28;;;;;;;5.28;0.80;;;;;;;;;;5070503;28;20045;-69
2022/09/18 05:25:54;;;;;;;4.85;0.80;;;;;;;;;;5071368;28;20090;-69
2022/09/18 05:28:20;;;;;;;5.55;0.73;;;;;;;;;;5063518;28;20076;-69
2022/09/18 05:30:46;;;;;;;8.32;1.20;;;;;;;;;;5057272;28;20040;-69
2022/09/18 05:33:12;;;;;;;3.95;0.80;;;;;;;;;;5072098;28;20040;-69
2022/09/18 05:35:38;;;;;;;7.13;0.93;;;;;;;;;;5057503;28;20036;-69
2022/09/18 05:38:05;;;;;;;6.82;0.90;;;;;;;;;;5054542;28;20108;-69
2022/09/18 05:40:32;;;;;;;11.63;1.05;;;;;;;;;;5056434;28;20037;-69
2022/09/18 05:42:59;;;;;;;4.55;0.70;;;;;;;;;;5053670;28;20033;-69
2022/09/18 05:45:25;;;;;;;5.10;0.80;;;;;;;;;;5070838;28;20068;-69
2022/09/18 05:47:55;;;;;;;6.82;0.80;;;;;;;;;;5070959;28;20516;-69
2022/09/18 05:50:22;;;;;;;4.72;0.77;;;;;;;;;;5071823;28;20044;-69
2022/09/18 05:52:55;;;;;;;5.10;0.70;;;;;;;;;;5067434;28;20048;-73
2022/09/18 05:55:22;;;;;;;8.52;0.90;;;;;;;;;;5051553;28;20037;-74
2022/09/18 05:57:51;;;;;;;7.35;0.80;;;;;;;;;;5051738;28;20041;-73
2022/09/18 06:00:17;;;;;;;7.75;0.80;;;;;;;;;;5051521;28;20049;-74
2022/09/18 06:02:43;;;;;;;6.70;1.20;;;;;;;;;;5051267;28;20502;-73
2022/09/18 06:05:09;;;;;;;7.15;1.35;;;;;;;;;;5060233;28;20044;-70
2022/09/18 06:07:35;;;;;;;7.03;1.70;;;;;;;;;;5071621;28;20044;-70
2022/09/18 06:10:03;;;;;;;9.15;1.30;;;;;;;;;;5054068;28;20040;-70
2022/09/18 06:12:29;;;;;;;8.00;1.17;;;;;;;;;;5071534;28;20051;-73
2022/09/18 06:14:55;;;;;;;9.00;1.25;;;;;;;;;;5052453;28;20044;-73
2022/09/18 06:17:21;;;;;;;4.38;0.70;;;;;;;;;;5051390;28;20068;-73
2022/09/18 06:19:49;;;;;;;6.38;1.40;;;;;;;;;;5034830;28;20045;-73
2022/09/18 06:22:15;;;;;;;7.43;1.10;;;;;;;;;;5051479;28;20399;-73
2022/09/18 06:24:41;;;;;;;11.52;1.27;;;;;;;;;;5051384;28;20777;-73
2022/09/18 06:27:07;;;;;;;7.57;1.02;;;;;;;;;;5051558;28;20394;-73
2022/09/18 06:29:33;;;;;;;6.97;0.98;;;;;;;;;;5052528;28;20401;-73
2022/09/18 06:31:59;;;;;;;6.55;1.60;;;;;;;;;;5034556;28;20053;-73
2022/09/18 06:34:25;;;;;;;6.20;0.80;;;;;;;;;;5051148;28;20051;-73
2022/09/18 06:36:51;;;;;;;7.13;1.00;;;;;;;;;;5034711;28;20040;-73
2022/09/18 06:39:17;;;;;;;8.25;0.93;;;;;;;;;;5051356;28;20037;-74
2022/09/18 06:41:44;;;;;;;9.50;1.10;;;;;;;;;;5051607;28;20486;-73
2022/09/18 06:44:10;;;;;;;7.43;1.20;;;;;;;;;;5034987;28;20383;-73
2022/09/18 06:46:36;;;;;;;7.03;1.23;;;;;;;;;;5052582;28;20394;-74
2022/09/18 06:49:03;;;;;;;9.50;2.08;;;;;;;;;;5018621;28;20383;-74
2022/09/18 06:51:29;;;;;;;8.50;1.70;;;;;;;;;;5051236;28;20122;-73
2022/09/18 06:53:55;;;;;;;8.65;0.98;;;;;;;;;;5051262;28;20628;-73
2022/09/18 06:56:21;;;;;;;6.28;1.05;;;;;;;;;;5053297;28;20052;-73
2022/09/18 06:58:47;;;;;;;9.25;1.23;;;;;;;;;;5066077;28;20080;-73
2022/09/18 07:01:13;;;;;;;5.72;1.40;;;;;;;;;;5060094;28;20047;-73
2022/09/18 07:03:39;;;;;;;9.52;1.40;;;;;;;;;;5063694;28;20136;-73
2022/09/18 07:06:08;;;;;;;7.07;1.27;;;;;;;;;;5051906;28;20041;-73
2022/09/18 07:08:34;;;;;;;10.00;1.45;;;;;;;;;;5054421;28;20056;-73
2022/09/18 07:11:01;;;;;;;7.32;1.25;;;;;;;;;;5055601;28;20033;-73
2022/09/18 07:13:31;;;;;;;6.80;1.20;;;;;;;;;;5054358;28;20041;-75
2022/09/18 07:15:58;;;;;;;9.13;1.33;;;;;;;;;;5037480;28;20056;-74
2022/09/18 07:18:24;;;;;;;8.27;1.17;;;;;;;;;;5069429;28;20139;-73
2022/09/18 07:20:50;;;;;;;10.82;0.98;;;;;;;;;;5054170;28;20051;-73
2022/09/18 07:23:16;;;;;;;7.60;0.80;;;;;;;;;;5055534;28;20055;-73
2022/09/18 07:25:42;;;;;;;5.35;1.45;;;;;;;;;;5053924;28;20090;-73
2022/09/18 07:28:10;;;;;;;5.07;0.80;;;;;;;;;;5054419;28;20041;-74
2022/09/18 07:30:37;;;;;;;4.78;1.05;;;;;;;;;;5054345;28;20037;-73
2022/09/18 07:33:04;;;;;;;3.38;0.70;;;;;;;;;;5054404;28;20049;-75
2022/09/18 07:35:31;;;;;;;3.22;0.60;;;;;;;;;;5070252;28;20496;-74
2022/09/18 07:38:01;;;;;;;6.85;0.60;;;;;;;;;;5065905;28;20106;-74
2022/09/18 07:40:28;;;;;;;3.70;0.50;;;;;;;;;;5054140;28;20047;-74
2022/09/18 07:42:58;;;;;;;4.50;0.68;;;;;;;;;;5054153;28;20041;-74
2022/09/18 07:45:24;;;;;;;3.47;0.60;;;;;;;;;;5069597;28;20497;-74
2022/09/18 07:47:50;;;;;;;2.40;0.60;;;;;;;;;;5059458;28;20082;-74
2022/09/18 07:50:16;;;;;;;2.30;0.50;;;;;;;;;;5061565;28;20099;-74
2022/09/18 07:52:50;;;;;;;1.98;0.57;;;;;;;;;;5057007;28;20040;-74
2022/09/18 07:55:18;;;;;;;3.53;0.63;;;;;;;;;;5062712;28;20120;-74
2022/09/18 07:57:44;;;;;;;2.05;0.50;;;;;;;;;;5053280;28;20505;-74
2022/09/18 08:00:11;;;;;;;4.63;0.60;;;;;;;;;;5053945;28;20090;-71
2022/09/18 08:02:37;;;;;;;3.90;0.73;;;;;;;;;;5050822;28;20520;-71
2022/09/18 08:05:03;;;;;;;2.58;0.50;;;;;;;;;;5072309;28;20044;-70
2022/09/18 08:07:29;;;;;;;3.50;0.68;;;;;;;;;;5073824;28;20492;-70
2022/09/18 08:09:55;;;;;;;3.65;0.70;;;;;;;;;;5073674;28;20389;-69
2022/09/18 08:12:21;;;;;;;3.47;0.50;;;;;;;;;;5072079;28;20037;-69
2022/09/18 08:14:48;;;;;;;5.53;0.68;;;;;;;;;;5055934;28;20040;-73
2022/09/18 08:17:14;;;;;;;3.08;0.52;;;;;;;;;;5053251;28;20539;-74
2022/09/18 08:19:40;;;;;;;3.95;1.05;;;;;;;;;;5053189;28;20079;-73
2022/09/18 08:22:06;;;;;;;3.45;0.60;;;;;;;;;;5054618;28;20048;-72
2022/09/18 08:24:32;;;;;;;2.22;0.50;;;;;;;;;;5054619;28;20497;-73
2022/09/18 08:27:02;;;;;;;4.28;0.68;;;;;;;;;;5053348;28;20064;-74
2022/09/18 08:29:31;;;;;;;3.90;0.70;;;;;;;;;;5053163;28;20049;-69
2022/09/18 08:31:58;;;;;;;2.05;0.50;;;;;;;;;;5066998;28;20040;-69
2022/09/18 08:34:24;;;;;;;4.97;0.80;;;;;;;;;;5073072;28;20079;-69
2022/09/18 08:36:50;;;;;;;3.83;0.50;;;;;;;;;;5055158;28;20072;-69
2022/09/18 08:39:16;;;;;;;2.20;0.60;;;;;;;;;;5072210;28;20051;-70
2022/09/18 08:41:42;;;;;;;4.22;0.60;;;;;;;;;;5055552;28;20036;-69
2022/09/18 08:44:13;;;;;;;3.53;0.55;;;;;;;;;;5051801;28;20041;-69
2022/09/18 08:46:59;;;;;;;4.63;0.73;;;;;;;;;;5063203;28;20040;-70
2022/09/18 08:49:38;;;;;;;5.15;0.90;;;;;;;;;;5064454;28;20082;-70
2022/09/18 08:52:09;;;;;;;4.60;0.65;;;;;;;;;;5060595;28;20124;-70
2022/09/18 08:55:07;;;;;;;2.30;0.70;;;;;;;;;;5070512;28;20097;-70
2022/09/18 08:57:33;;;;;;;3.80;0.80;;;;;;;;;;5049579;28;20053;-71
2022/09/18 09:00:00;;;;;;;4.65;0.65;;;;;;;;;;5071478;28;20048;-70
2022/09/18 09:02:40;;;;;;;3.10;0.70;;;;;;;;;;5057572;28;20083;-70
2022/09/18 09:05:11;;;;;;;4.07;0.70;;;;;;;;;;5048388;28;20048;-70
2022/09/18 09:07:42;;;;;;;13.32;2.13;;;;;;;;;;5071759;28;20048;-70
2022/09/18 09:10:08;;;;;;;7.00;0.80;;;;;;;;;;5071723;28;20048;-70
2022/09/18 09:12:52;;;;;;;6.85;0.85;;;;;;;;;;5059511;28;20128;-70
2022/09/18 09:15:40;;;;;;;7.60;0.80;;;;;;;;;;5053212;28;20461;-70
2022/09/18 09:18:22;;;;;;;5.13;0.75;;;;;;;;;;5071413;28;20097;-70
2022/09/18 09:20:53;;;;;;;5.07;0.80;;;;;;;;;;5021899;28;20060;-70
2022/09/18 09:23:22;;;;;;;3.97;0.80;;;;;;;;;;5052296;28;20386;-70
2022/09/18 09:25:54;;;;;;;5.05;0.80;;;;;;;;;;5059999;28;20058;-70
2022/09/18 09:28:20;;;;;;;5.75;0.80;;;;;;;;;;5062872;28;20469;-70
2022/09/18 09:30:47;;;;;;;5.13;1.00;;;;;;;;;;5066329;28;20045;-70
2022/09/18 09:33:23;;;;;;;4.60;1.00;;;;;;;;;;5052284;28;20120;-70
2022/09/18 09:35:53;;;;;;;5.30;1.10;;;;;;;;;;5055143;28;20036;-70
2022/09/18 09:38:28;;;;;;;3.58;0.90;;;;;;;;;;5059907;28;20148;-70
2022/09/18 09:40:54;;;;;;;8.70;0.95;;;;;;;;;;5064764;28;20037;-70
2022/09/18 09:43:24;;;;;;;5.47;0.93;;;;;;;;;;5078530;28;20366;-70
2022/09/18 09:45:51;;;;;;;8.30;1.10;;;;;;;;;;5057525;28;20048;-69
2022/09/18 09:48:23;;;;;;;5.32;0.60;;;;;;;;;;5062865;28;20039;-69
2022/09/18 09:51:08;;;;;;;3.75;0.80;;;;;;;;;;5064922;28;20080;-70
2022/09/18 09:53:35;;;;;;;7.53;0.77;;;;;;;;;;5061972;28;20056;-70
2022/09/18 09:56:16;;;;;;;4.65;0.75;;;;;;;;;;5066918;28;20116;-69
2022/09/18 09:58:52;;;;;;;7.85;1.10;;;;;;;;;;5063227;28;20032;-69
2022/09/18 10:01:22;;;;;;;5.30;0.80;;;;;;;;;;5067669;28;20106;-70
2022/09/18 10:03:54;;;;;;;3.60;0.70;;;;;;;;;;5062578;28;20505;-70
2022/09/18 10:06:31;;;;;;;4.68;1.02;;;;;;;;;;5053762;28;20091;-70
2022/09/18 10:09:13;;;;;;;5.32;0.60;;;;;;;;;;5063006;28;20079;-74
2022/09/18 10:11:41;;;;;;;7.20;0.98;;;;;;;;;;5051748;28;20056;-74
2022/09/18 10:14:19;;;;;;;5.32;0.90;;;;;;;;;;5054302;28;20127;-70
2022/09/18 10:16:47;;;;;;;7.40;1.00;;;;;;;;;;5064271;28;20067;-70
2022/09/18 10:19:17;;;;;;;5.90;1.00;;;;;;;;;;5058905;28;20104;-70
2022/09/18 10:21:44;;;;;;;6.57;1.00;;;;;;;;;;5071144;28;20044;-70
2022/09/18 10:24:10;;;;;;;5.80;0.85;;;;;;;;;;5057421;28;20552;-71
2022/09/18 10:27:00;;;;;;;5.00;0.77;;;;;;;;;;5070622;28;20398;-70
2022/09/18 10:29:26;;;;;;;6.53;0.90;;;;;;;;;;5055843;28;20060;-72
2022/09/18 10:31:56;;;;;;;7.68;1.05;;;;;;;;;;5073737;28;20083;-74
2022/09/18 10:34:41;;;;;;;8.82;1.00;;;;;;;;;;5069328;28;20161;-74
2022/09/18 10:37:15;;;;;;;5.65;0.90;;;;;;;;;;5055533;28;20041;-74
2022/09/18 10:39:48;;;;;;;8.93;1.15;;;;;;;;;;5063574;28;20385;-73
2022/09/18 10:42:16;;;;;;;5.65;0.77;;;;;;;;;;5060184;28;20072;-73
2022/09/18 10:44:47;;;;;;;7.20;0.95;;;;;;;;;;5054437;28;20095;-73
2022/09/18 10:47:19;;;;;;;3.55;0.77;;;;;;;;;;5055912;28;20040;-74
2022/09/18 10:50:00;;;;;;;8.45;1.38;;;;;;;;;;5038176;28;20074;-76
2022/09/18 10:52:33;;;;;;;4.63;0.90;;;;;;;;;;5056113;28;20053;-73
2022/09/18 10:54:59;;;;;;;4.97;0.82;;;;;;;;;;5055720;28;20040;-73
2022/09/18 10:57:31;;;;;;;7.80;0.82;;;;;;;;;;5054941;28;20509;-74
2022/09/18 10:59:57;;;;;;;7.72;0.98;;;;;;;;;;5055710;28;20037;-74
2022/09/18 11:02:25;;;;;;;7.13;1.20;;;;;;;;;;5041034;28;20057;-74
2022/09/18 11:04:52;;;;;;;5.40;0.80;;;;;;;;;;5054717;28;20069;-74
2022/09/18 11:07:18;;;;;;;4.90;0.75;;;;;;;;;;5056004;28;20041;-74
2022/09/18 11:09:45;;;;;;;6.40;1.00;;;;;;;;;;5054527;28;20484;-74
2022/09/18 11:12:16;;;;;;;5.35;0.90;;;;;;;;;;5054630;28;20045;-73
2022/09/18 11:14:49;;;;;;;6.10;1.00;;;;;;;;;;5055718;28;20075;-74
2022/09/18 11:17:26;;;;;;;4.68;0.70;;;;;;;;;;5040928;28;20125;-74
2022/09/18 11:19:54;;;;;;;3.28;0.70;;;;;;;;;;5055444;28;20041;-74
2022/09/18 11:22:40;;;;;;;6.38;0.80;;;;;;;;;;5054375;28;20036;-74
2022/09/18 11:25:35;;;;;;;2.85;0.80;;;;;;;;;;5055805;28;20489;-74
2022/09/18 11:28:02;;;;;;;5.75;1.17;;;;;;;;;;5045637;28;20421;-74
2022/09/18 11:30:32;;;;;;;6.88;0.90;;;;;;;;;;5054919;28;20044;-75
2022/09/18 11:33:08;;;;;;;8.00;1.10;;;;;;;;;;5055438;28;20036;-74
2022/09/18 11:35:35;;;;;;;5.00;0.90;;;;;;;;;;5055439;28;20179;-74
2022/09/18 11:38:05;;;;;;;4.95;1.10;;;;;;;;;;5055697;28;20040;-73
2022/09/18 11:40:32;;;;;;;6.78;1.10;;;;;;;;;;5055218;28;20049;-74
2022/09/18 11:43:04;;;;;;;10.75;1.30;;;;;;;;;;5053583;28;20037;-74
2022/09/18 11:45:49;;;;;;;8.63;1.38;;;;;;;;;;5053970;28;20393;-74
2022/09/18 11:48:35;;;;;;;9.27;1.95;;;;;;;;;;5053986;28;20343;-74
2022/09/18 11:51:04;;;;;;;12.18;1.30;;;;;;;;;;5053769;28;20033;-74
2022/09/18 11:53:33;;;;;;;8.30;1.05;;;;;;;;;;5055476;28;20045;-73
2022/09/18 11:56:06;;;;;;;6.00;0.80;;;;;;;;;;5053341;28;20140;-73
2022/09/18 11:58:45;;;;;;;8.82;1.73;;;;;;;;;;5053955;28;20371;-73
2022/09/18 12:01:30;;;;;;;10.80;1.40;;;;;;;;;;5036705;28;20040;-73
2022/09/18 12:03:57;;;;;;;;;;;;;;;;;;5055369;28;20090;-73
2022/09/18 12:06:28;;;;;;;9.50;1.30;;;;;;;;;;5054886;28;20327;-74
2022/09/18 12:09:10;;;;;;;8.15;1.30;;;;;;;;;;5053503;28;20465;-73
2022/09/18 12:11:55;;;;;;;5.32;1.05;;;;;;;;;;5055062;28;20076;-73
2022/09/18 12:14:27;;;;;;;9.07;1.10;;;;;;;;;;5053423;28;20481;-73
2022/09/18 12:17:11;;;;;;;8.43;1.05;;;;;;;;;;5052869;28;20041;-73
2022/09/18 12:19:37;;;;;;;6.85;1.27;;;;;;;;;;5053298;28;20037;-73
2022/09/18 12:22:21;;;;;;;7.68;1.23;;;;;;;;;;5053426;28;20490;-73
2022/09/18 12:24:48;;;;;;;7.28;1.25;;;;;;;;;;5054320;28;20069;-73
2022/09/18 12:27:20;;;;;;;8.20;1.08;;;;;;;;;;5053987;28;20041;-73
2022/09/18 12:29:55;;;;;;;5.80;1.10;;;;;;;;;;5053022;28;20044;-73
2022/09/18 12:32:39;;;;;;;8.00;1.13;;;;;;;;;;5054009;28;20370;-74
2022/09/18 12:35:25;;;;;;;7.10;1.40;;;;;;;;;;5053871;28;20543;-73
2022/09/18 12:37:51;;;;;;;;;;;;;;;;;;5033837;28;20041;-74
2022/09/18 12:40:37;;;;;;;7.93;1.10;;;;;;;;;;5047731;28;19916;-74
2022/09/18 12:43:35;;;;;;;8.25;0.90;;;;;;;;;;5035954;28;20052;-74
2022/09/18 12:46:12;;;;;;;8.27;1.17;;;;;;;;;;5013813;28;20049;-73
2022/09/18 12:48:53;;;;;;;5.63;1.00;;;;;;;;;;5054254;28;20075;-73
2022/09/18 12:51:19;;;;;;;7.97;1.02;;;;;;;;;;5032863;28;20041;-74
2022/09/18 12:53:46;;;;;;;6.22;1.00;;;;;;;;;;5056630;28;20093;-74
2022/09/18 12:56:14;;;;;;;6.53;1.15;;;;;;;;;;5068716;28;20045;-74
2022/09/18 12:58:49;;;;;;;8.93;1.10;;;;;;;;;;5052779;28;20048;-73
2022/09/18 13:01:18;;;;;;;7.30;1.00;;;;;;;;;;5035946;28;20044;-74
2022/09/18 13:03:46;;;;;;;6.95;1.20;;;;;;;;;;5053426;28;20292;-73
2022/09/18 13:06:14;;;;;;;5.30;1.00;;;;;;;;;;5055748;28;20536;-69
2022/09/18 13:08:53;;;;;;;7.07;1.20;;;;;;;;;;5072393;28;20054;-69
2022/09/18 13:11:33;;;;;;;7.60;1.25;;;;;;;;;;5056878;28;20036;-69
2022/09/18 13:14:02;;;;;;;7.55;1.20;;;;;;;;;;5071285;28;20048;-69
2022/09/18 13:16:34;;;;;;;8.20;1.10;;;;;;;;;;5070406;28;20048;-69
2022/09/18 13:19:03;;;;;;;9.18;1.30;;;;;;;;;;5072285;28;20040;-70
2022/09/18 13:21:32;;;;;;;6.30;1.08;;;;;;;;;;5054312;28;20044;-70
2022/09/18 13:23:58;;;;;;;7.10;1.25;;;;;;;;;;5067263;28;20571;-70
2022/09/18 13:26:26;;;;;;;5.43;0.93;;;;;;;;;;5052010;28;20076;-69
2022/09/18 13:28:52;;;;;;;6.95;1.00;;;;;;;;;;5060286;28;20043;-69
2022/09/18 13:31:29;;;;;;;8.07;1.00;;;;;;;;;;5071791;28;20535;-74
2022/09/18 13:33:55;;;;;;;8.73;1.65;;;;;;;;;;5055792;28;20406;-74
2022/09/18 13:36:25;;;;;;;10.05;1.48;;;;;;;;;;5053126;28;20103;-73
2022/09/18 13:38:52;;;;;;;10.57;2.13;;;;;;;;;;5052979;28;20033;-73
2022/09/18 13:41:18;;;;;;;6.80;1.10;;;;;;;;;;5052321;28;20498;-73
2022/09/18 13:43:51;;;;;;;7.50;1.10;;;;;;;;;;5051839;28;20103;-73
2022/09/18 13:46:31;;;;;;;8.40;1.15;;;;;;;;;;5032153;28;20045;-73
2022/09/18 13:48:59;;;;;;;7.72;1.08;;;;;;;;;;5048628;28;20060;-73
2022/09/18 13:51:27;;;;;;;6.70;1.17;;;;;;;;;;5052118;28;20490;-73
2022/09/18 13:54:16;;;;;;;6.43;0.90;;;;;;;;;;5051956;28;20486;-69
2022/09/18 13:57:09;;;;;;;11.02;1.35;;;;;;;;;;5049205;28;20102;-68
2022/09/18 13:59:48;;;;;;;7.35;0.95;;;;;;;;;;5071735;28;20036;-69
2022/09/18 14:02:33;;;;;;;7.78;1.00;;;;;;;;;;5071402;28;20132;-69
2022/09/18 14:05:01;;;;;;;8.05;1.17;;;;;;;;;;5048346;28;20041;-69
2022/09/18 14:07:28;;;;;;;9.88;1.45;;;;;;;;;;5075278;28;20052;-69
2022/09/18 14:09:55;;;;;;;10.88;0.80;;;;;;;;;;5074552;28;20043;-69
2022/09/18 14:12:22;;;;;;;5.30;1.00;;;;;;;;;;5074690;28;20037;-69
2022/09/18 14:14:57;;;;;;;9.07;1.00;;;;;;;;;;5062118;28;20556;-69
2022/09/18 14:17:24;;;;;;;9.77;1.38;;;;;;;;;;5042232;28;20120;-69
2022/09/18 14:19:58;;;;;;;6.97;1.10;;;;;;;;;;5067990;28;20119;-69
2022/09/18 14:22:36;;;;;;;6.28;0.90;;;;;;;;;;5048330;28;20047;-68
2022/09/18 14:25:09;;;;;;;11.43;1.10;;;;;;;;;;5074625;28;20068;-68
2022/09/18 14:27:37;;;;;;;6.78;0.90;;;;;;;;;;5072590;28;20040;-68
2022/09/18 14:30:12;;;;;;;9.65;1.10;;;;;;;;;;5067785;28;20044;-68
2022/09/18 14:32:38;;;;;;;6.63;1.00;;;;;;;;;;5075335;28;20450;-68
2022/09/18 14:35:17;;;;;;;7.15;1.48;;;;;;;;;;5074346;28;20055;-68
2022/09/18 14:37:46;;;;;;;7.00;1.00;;;;;;;;;;5027027;28;20106;-68
2022/09/18 14:40:19;;;;;;;10.05;1.10;;;;;;;;;;5054095;28;20037;-68
2022/09/18 14:42:46;;;;;;;8.60;0.90;;;;;;;;;;5068567;28;20041;-68
2022/09/18 14:45:12;;;;;;;5.70;0.90;;;;;;;;;;5037843;28;20429;-68
2022/09/18 14:47:43;;;;;;;8.52;1.10;;;;;;;;;;5072572;28;20098;-68
2022/09/18 14:50:28;;;;;;;7.68;1.10;;;;;;;;;;5057973;28;20047;-73
2022/09/18 14:52:54;;;;;;;6.75;1.00;;;;;;;;;;5056666;28;20043;-73
2022/09/18 14:55:22;;;;;;;6.28;0.95;;;;;;;;;;5054646;28;20083;-73
2022/09/18 14:57:57;;;;;;;7.50;0.93;;;;;;;;;;5055011;28;20124;-73
2022/09/18 15:00:25;;;;;;;7.35;1.10;;;;;;;;;;5038225;28;20534;-73